Campbell AAF (Fort Campbell) Air Field
KHOP : now visible

Airfield :











YOU CAN JOIN US ON...

 
LOGIN :

Register | Disclaimer

   EN    FR    IT 

 









Legend :    VFR   Marginal VFR   IFR   Intensive IFR   Very Intensive IFR
Visi :
Ceiling :
>= 8 km
>= 3000ft
5 to 8 km
1000 to 3000 ft
1500m to 5 km
500 to 1000 ft
800 to 1500m
200 to 500 ft
< 800m
< 200 ft
Symbols :   Thunderstorms  Fog  Heavy snow  Heavy precipitations  Wind > 20 kt






- Airport Elevation : 573 ft


KHOP - Campbell AAF (Fort Campbell) Air Field

CURRENT METAR :
  • 161955Z AUTO 16007KT 10SM CLR 34/21 A2996 RMK AO2 SLP141 T03440214 $

EXPIRED METARs :
  • 161855Z AUTO 23008KT 10SM CLR 34/22 A2998 RMK AO2 SLP148 T03420216 $
  • 161755Z AUTO 22007KT 10SM FEW180 FEW210 34/23 A3000 RMK AO2 SLP155 T03400227 10342 20227 58002 $
  • 161655Z AUTO 23010KT 10SM CLR 33/22 A3001 RMK AO2 SLP158 T03310222 $
  • 161555Z AUTO 20008KT 10SM CLR 32/22 A3001 RMK AO2 SLP158 T03200221 $

TAF AMD TAF KHOP
Valid from the 16 at 19:00 until the 17 at 22:00 UTC


161918Z 1619/1722 VRB06KT 9999 SKC QNH2997INS
BECMG 1620/1621 18006KT 9999 BKN050 QNH2997INS
TEMPO 1621/1624 18010KT 8000 -TSRA BKN040CB
BECMG 1700/1701 18006KT 9999 NSW SCT070 QNH3000INS
BECMG 1720/1721 18006KT 9000 -SHRA BKN050 QNH3004INS TX33/1619Z TN25/1705Z
KZME FIR / North America



MET'MAP, your aeronautical weather chart ! - Copyright ORBIFLY December 2007 - Disclaimer

ORBIFLY MET'MAP TEAM :

Programming & Development : Alexandra Zaïnal
Original concept : Baudouin d'Aumeries
Technical & hardware support : Manuel Goepfert
Assistance : Marc-Olivier Méhu




SOURCES & CREDITS :

   NOAA       Earth
Advisory